Time;durP1;ratioP1;P1;durP2;ratioP2;P2;SDS_P1;SDS_P2;PMS_P1;PMS_P2;Temp;Humidity;BMP_temperature;BMP_pressure;BME280_temperature;BME280_humidity;BME280_pressure;Samples;Min_cycle;Max_cycle;Signal;HPM_P1;HPM_P2
2024/04/18 00:01:51;;;;;;;2.60;1.00;;;;;;;1.79;58.22;101274.06;5489427;26;20449;-72
2024/04/18 00:04:19;;;;;;;2.37;1.20;;;;;;;1.78;58.45;101272.28;5488980;26;20512;-72
2024/04/18 00:06:45;;;;;;;2.33;0.93;;;;;;;1.76;58.37;101265.34;5489007;26;20621;-73
2024/04/18 00:09:14;;;;;;;3.40;1.23;;;;;;;1.75;58.56;101268.78;5489117;26;20462;-72
2024/04/18 00:11:40;;;;;;;1.67;1.00;;;;;;;1.75;58.28;101269.66;5484818;26;20219;-72
2024/04/18 00:14:11;;;;;;;3.03;1.07;;;;;;;1.75;58.41;101264.50;5488659;26;20794;-73
2024/04/18 00:16:37;;;;;;;2.27;0.87;;;;;;;1.78;58.32;101266.28;5488200;26;20239;-72
2024/04/18 00:19:05;;;;;;;2.57;1.03;;;;;;;1.78;58.81;101271.44;5488917;26;20567;-73
2024/04/18 00:21:33;;;;;;;4.63;1.17;;;;;;;1.78;58.66;101269.72;5488733;26;20275;-72
2024/04/18 00:24:01;;;;;;;1.63;1.20;;;;;;;1.78;58.56;101280.03;5487452;26;20454;-72
2024/04/18 00:26:27;;;;;;;1.83;1.03;;;;;;;1.78;58.49;101274.88;5488698;26;20528;-72
2024/04/18 00:28:56;;;;;;;1.80;1.00;;;;;;;1.75;58.68;101282.56;5488769;26;20560;-73
2024/04/18 00:31:24;;;;;;;1.10;0.93;;;;;;;1.75;59.06;101279.09;5488440;26;20690;-68
2024/04/18 00:33:53;;;;;;;2.73;1.03;;;;;;;1.73;58.86;101279.06;5488340;26;20452;-68
2024/04/18 00:36:19;;;;;;;2.70;0.97;;;;;;;1.71;58.88;101283.34;5488331;26;20496;-69
2024/04/18 00:38:47;;;;;;;2.23;1.20;;;;;;;1.70;58.93;101284.16;5488431;26;20441;-68
2024/04/18 00:41:13;;;;;;;2.20;0.80;;;;;;;1.69;58.87;101278.13;5488284;26;20283;-68
2024/04/18 00:43:43;;;;;;;1.27;0.87;;;;;;;1.69;58.97;101283.28;5482313;26;20570;-68
2024/04/18 00:46:09;;;;;;;3.63;1.10;;;;;;;1.68;59.01;101278.97;5487905;26;20227;-69
2024/04/18 00:48:41;;;;;;;1.33;1.00;;;;;;;1.72;58.99;101276.47;5488201;26;20457;-68
2024/04/18 00:51:07;;;;;;;1.33;1.10;;;;;;;1.72;58.94;101279.03;5484819;26;20511;-69
2024/04/18 00:53:36;;;;;;;4.00;1.13;;;;;;;1.71;58.98;101283.34;5487957;26;20457;-69
2024/04/18 00:56:02;;;;;;;2.63;1.10;;;;;;;1.71;58.92;101285.91;5488137;26;20227;-69
2024/04/18 00:58:31;;;;;;;1.20;0.90;;;;;;;1.71;58.75;101285.91;5487697;26;20575;-69
2024/04/18 01:00:58;;;;;;;4.13;1.20;;;;;;;1.70;58.91;101281.56;5481842;26;20462;-68
2024/04/18 01:03:27;;;;;;;1.53;1.10;;;;;;;1.70;58.81;101286.72;5487745;26;20429;-69
2024/04/18 01:05:56;;;;;;;2.63;1.30;;;;;;;1.68;59.03;101283.28;5487625;26;20529;-68
2024/04/18 01:08:24;;;;;;;3.13;1.20;;;;;;;1.66;58.83;101279.78;5486411;26;20448;-69
2024/04/18 01:10:50;;;;;;;2.40;1.37;;;;;;;1.65;58.98;101283.22;5491839;26;20469;-68
2024/04/18 01:13:19;;;;;;;2.87;1.23;;;;;;;1.68;59.15;101298.75;5491553;26;20809;-67
2024/04/18 01:15:45;;;;;;;3.53;1.13;;;;;;;1.66;59.18;101290.09;5491199;26;20313;-68
2024/04/18 01:18:14;;;;;;;1.07;0.90;;;;;;;1.66;59.15;101284.94;5491667;26;20455;-68
2024/04/18 01:20:40;;;;;;;1.40;1.10;;;;;;;1.63;59.21;101293.47;5491337;26;20387;-67
2024/04/18 01:23:11;;;;;;;4.20;1.07;;;;;;;1.63;59.31;101290.03;5491349;26;20524;-68
2024/04/18 01:25:37;;;;;;;1.30;1.20;;;;;;;1.60;59.61;101279.66;5491109;26;20536;-68
2024/04/18 01:28:08;;;;;;;2.43;0.90;;;;;;;1.58;59.24;101278.75;5491384;26;20557;-68
2024/04/18 01:30:36;;;;;;;1.60;1.00;;;;;;;1.58;59.57;101282.19;5491436;26;20616;-68
2024/04/18 01:33:05;;;;;;;2.40;1.00;;;;;;;1.58;59.52;101289.06;5491126;26;20508;-68
2024/04/18 01:35:31;;;;;;;0.97;0.90;;;;;;;1.57;59.47;101295.06;5491035;26;20541;-68
2024/04/18 01:38:00;;;;;;;2.70;0.93;;;;;;;1.56;59.53;101298.47;5491337;26;20456;-68
2024/04/18 01:40:26;;;;;;;1.50;1.10;;;;;;;1.56;59.48;101301.03;5491035;26;20232;-68
2024/04/18 01:42:54;;;;;;;3.10;1.10;;;;;;;1.55;59.58;101301.88;5491220;26;20509;-67
2024/04/18 01:45:23;;;;;;;2.73;1.20;;;;;;;1.55;59.76;101299.31;5491047;26;20227;-68
2024/04/18 01:47:51;;;;;;;2.60;0.90;;;;;;;1.53;59.59;101300.97;5491009;26;20449;-67
2024/04/18 01:50:18;;;;;;;2.40;1.00;;;;;;;1.53;59.74;101304.41;5490878;26;20463;-68
2024/04/18 01:52:46;;;;;;;2.33;0.90;;;;;;;1.51;60.05;101315.56;5491263;26;20590;-70
2024/04/18 01:55:12;;;;;;;2.00;1.43;;;;;;;1.47;60.52;101309.44;5490899;26;20598;-70
2024/04/18 01:57:41;;;;;;;1.70;1.03;;;;;;;1.50;59.97;101313.78;5490875;26;20866;-70
2024/04/18 02:00:08;;;;;;;3.83;1.60;;;;;;;1.48;60.38;101312.06;5490883;26;20289;-70
2024/04/18 02:02:39;;;;;;;1.83;1.20;;;;;;;1.45;59.96;101306.84;5485590;26;20449;-70
2024/04/18 02:05:05;;;;;;;2.07;1.10;;;;;;;1.48;60.05;101306.91;5490841;26;20531;-70
2024/04/18 02:07:34;;;;;;;1.80;0.97;;;;;;;1.50;60.23;101306.91;5490841;26;20425;-70
2024/04/18 02:09:59;;;;;;;3.33;1.03;;;;;;;1.51;59.94;101312.97;5490784;26;20468;-70
2024/04/18 02:12:28;;;;;;;3.23;1.30;;;;;;;1.50;60.18;101309.50;5490682;26;21094;-70
2024/04/18 02:14:54;;;;;;;2.10;1.40;;;;;;;1.49;60.17;101302.63;5488399;26;20282;-70
2024/04/18 02:17:23;;;;;;;1.57;1.10;;;;;;;1.53;60.32;101311.28;5490181;26;20968;-70
2024/04/18 02:19:51;;;;;;;2.23;1.10;;;;;;;1.53;60.10;101316.44;5490400;26;20496;-70
2024/04/18 02:22:20;;;;;;;3.47;1.40;;;;;;;1.51;60.13;101312.97;5490765;26;20557;-74
2024/04/18 02:25:04;;;;;;;5.10;1.77;;;;;;;1.50;60.55;101309.50;5490758;26;20530;-74
2024/04/18 02:27:32;;;;;;;2.63;1.20;;;;;;;1.50;60.31;101304.34;5488436;26;20510;-74
2024/04/18 02:29:58;;;;;;;2.83;1.43;;;;;;;1.46;60.22;101306.00;5484306;26;20511;-74
2024/04/18 02:32:27;;;;;;;2.40;1.13;;;;;;;1.50;60.34;101308.63;5490508;26;20802;-74
2024/04/18 02:34:55;;;;;;;0.90;0.90;;;;;;;1.49;60.47;101305.19;5490222;26;20274;-74
2024/04/18 02:37:24;;;;;;;2.13;1.00;;;;;;;1.48;60.43;101308.63;5490431;26;20445;-74
2024/04/18 02:39:51;;;;;;;1.43;0.80;;;;;;;1.46;60.44;101306.00;5490236;26;20597;-74
2024/04/18 02:42:19;;;;;;;2.07;1.20;;;;;;;1.46;60.72;101311.16;5490149;26;21020;-74
2024/04/18 02:44:45;;;;;;;1.70;1.17;;;;;;;1.48;60.64;101303.47;5490067;26;20608;-74
2024/04/18 02:47:14;;;;;;;2.83;1.20;;;;;;;1.46;60.68;101303.41;5490197;26;20459;-74
2024/04/18 02:49:40;;;;;;;2.13;1.10;;;;;;;1.48;60.39;101304.31;5489974;26;20532;-74
2024/04/18 02:52:11;;;;;;;1.10;0.97;;;;;;;1.48;60.44;101301.75;5489895;26;20905;-74
2024/04/18 02:54:37;;;;;;;2.27;0.97;;;;;;;1.48;60.32;101303.47;5488844;26;20287;-74
2024/04/18 02:57:06;;;;;;;2.73;1.03;;;;;;;1.46;60.52;101300.84;5489810;26;20503;-74
2024/04/18 02:59:32;;;;;;;3.20;1.03;;;;;;;1.45;60.38;101312.00;5489536;26;20519;-74
2024/04/18 03:02:03;;;;;;;2.73;1.10;;;;;;;1.47;60.65;101309.44;5489796;26;20535;-67
2024/04/18 03:04:30;;;;;;;1.20;1.10;;;;;;;1.48;60.90;101316.34;5487668;26;20219;-67
2024/04/18 03:06:59;;;;;;;2.90;1.40;;;;;;;1.48;60.69;101316.34;5489731;26;20488;-67
2024/04/18 03:09:28;;;;;;;1.47;1.10;;;;;;;1.46;60.45;101312.84;5489646;26;20516;-66
2024/04/18 03:11:56;;;;;;;2.00;1.10;;;;;;;1.42;60.69;101309.34;5489378;26;20544;-67
2024/04/18 03:14:22;;;;;;;2.27;1.40;;;;;;;1.44;60.65;101309.38;5489600;26;20459;-67
2024/04/18 03:16:51;;;;;;;2.30;1.40;;;;;;;1.46;60.70;101320.59;5489584;26;20541;-67
2024/04/18 03:19:18;;;;;;;2.00;1.20;;;;;;;1.40;60.86;101313.59;5487688;26;20257;-67
2024/04/18 03:21:47;;;;;;;1.50;1.20;;;;;;;1.46;60.45;101321.47;5489670;26;20566;-67
2024/04/18 03:24:17;;;;;;;3.43;1.50;;;;;;;1.46;60.75;101321.47;5489259;26;20465;-67
2024/04/18 03:26:48;;;;;;;4.43;1.77;;;;;;;1.45;60.86;101322.31;5489305;26;20496;-63
2024/04/18 03:29:14;;;;;;;3.10;1.30;;;;;;;1.45;60.64;101326.59;5481658;26;20523;-67
2024/04/18 03:31:44;;;;;;;1.77;1.20;;;;;;;1.44;60.97;101319.69;5489418;26;21082;-72
2024/04/18 03:34:10;;;;;;;1.93;1.43;;;;;;;1.44;61.01;101320.53;5489177;26;20223;-72
2024/04/18 03:36:41;;;;;;;2.53;1.40;;;;;;;1.43;60.79;101329.13;5489208;26;20455;-72
2024/04/18 03:39:10;;;;;;;3.43;1.40;;;;;;;1.43;60.85;101328.25;5489602;26;20247;-72
2024/04/18 03:41:40;;;;;;;3.23;1.20;;;;;;;1.41;60.96;101327.34;5486798;26;20511;-72
2024/04/18 03:44:11;;;;;;;2.23;1.30;;;;;;;1.37;61.09;101316.09;5489180;26;20460;-73
2024/04/18 03:46:40;;;;;;;2.23;1.10;;;;;;;1.42;60.81;101341.97;5488917;26;20582;-72
2024/04/18 03:49:09;;;;;;;2.90;1.37;;;;;;;1.40;61.18;101334.22;5489146;26;21372;-73
2024/04/18 03:51:36;;;;;;;2.13;1.20;;;;;;;1.35;60.87;101328.06;5488687;26;20445;-73
2024/04/18 03:54:05;;;;;;;2.73;1.40;;;;;;;1.40;60.98;101338.50;5488970;26;20520;-73
2024/04/18 03:56:31;;;;;;;2.77;1.20;;;;;;;1.40;60.88;101347.09;5488992;26;20509;-72
2024/04/18 03:58:59;;;;;;;19.13;1.77;;;;;;;1.38;60.75;101337.59;5487376;26;20911;-73
2024/04/18 04:01:29;;;;;;;4.30;1.70;;;;;;;1.40;61.36;101338.50;5488818;26;20329;-73
2024/04/18 04:03:58;;;;;;;2.23;1.47;;;;;;;1.40;61.28;101348.81;5488713;26;20458;-73
2024/04/18 04:06:24;;;;;;;1.93;1.23;;;;;;;1.39;61.44;101347.94;5489135;26;20445;-73
2024/04/18 04:08:52;;;;;;;2.97;1.57;;;;;;;1.39;61.15;101345.38;5488904;26;20453;-72
2024/04/18 04:11:19;;;;;;;2.73;1.10;;;;;;;1.32;61.29;101340.88;5483894;26;20574;-68
2024/04/18 04:13:47;;;;;;;3.30;1.40;;;;;;;1.36;61.40;101347.88;5488856;26;20448;-68
2024/04/18 04:16:13;;;;;;;3.73;1.47;;;;;;;1.35;61.37;101346.13;5488543;26;20512;-69
2024/04/18 04:18:45;;;;;;;2.37;1.30;;;;;;;1.34;61.49;101346.97;5483218;26;20542;-69
2024/04/18 04:21:11;;;;;;;2.57;1.33;;;;;;;1.35;61.13;101350.41;5488606;26;20550;-69
2024/04/18 04:23:40;;;;;;;3.83;1.43;;;;;;;1.34;61.54;101357.28;5488745;26;20500;-69
2024/04/18 04:26:05;;;;;;;2.83;1.83;;;;;;;1.25;61.54;101336.44;5488506;26;20758;-69
2024/04/18 04:28:34;;;;;;;3.57;1.30;;;;;;;1.26;61.28;101343.31;5488574;26;20453;-69
2024/04/18 04:31:00;;;;;;;2.27;1.47;;;;;;;1.31;61.47;101349.47;5488290;26;20337;-68
2024/04/18 04:33:30;;;;;;;2.33;1.70;;;;;;;1.33;61.57;101357.22;5414769;26;20510;-68
2024/04/18 04:35:59;;;;;;;3.67;1.40;;;;;;;1.34;61.53;101359.00;5444597;26;20251;-68
2024/04/18 04:38:28;;;;;;;1.83;1.17;;;;;;;1.31;61.30;101353.75;5451880;26;20453;-68
2024/04/18 04:40:53;;;;;;;3.47;1.43;;;;;;;1.34;61.47;101357.28;5452896;26;20568;-70
2024/04/18 04:43:22;;;;;;;3.63;1.53;;;;;;;1.35;61.47;101363.28;5455477;26;20461;-70
2024/04/18 04:45:53;;;;;;;3.50;1.43;;;;;;;1.35;61.80;101361.59;5455249;26;20348;-70
2024/04/18 04:48:22;;;;;;;2.73;1.37;;;;;;;1.35;61.47;101359.00;5453179;26;20528;-70
2024/04/18 04:50:53;;;;;;;3.13;1.60;;;;;;;1.35;61.78;101359.00;5455210;26;20888;-70
2024/04/18 04:53:24;;;;;;;2.53;1.70;;;;;;;1.36;61.88;101360.78;5450539;26;20513;-70
2024/04/18 04:55:50;;;;;;;2.20;1.40;;;;;;;1.36;61.71;101363.34;5455134;26;20465;-70
2024/04/18 04:58:19;;;;;;;2.37;0.97;;;;;;;1.37;61.65;101375.41;5455133;26;20566;-70
2024/04/18 05:00:45;;;;;;;2.57;1.50;;;;;;;1.38;61.65;101371.09;5455079;26;20263;-70
2024/04/18 05:03:13;;;;;;;2.00;1.23;;;;;;;1.36;61.83;101358.19;5455338;26;20461;-70
2024/04/18 05:05:41;;;;;;;3.30;1.43;;;;;;;1.34;61.79;101365.00;5455296;26;20650;-70
2024/04/18 05:08:09;;;;;;;3.97;1.67;;;;;;;1.37;61.97;101371.94;5455029;26;20462;-70
2024/04/18 05:10:41;;;;;;;2.73;1.40;;;;;;;1.35;61.85;101366.75;5455092;26;20465;-70
2024/04/18 05:13:09;;;;;;;2.17;1.63;;;;;;;1.39;61.79;101367.69;5454873;26;21116;-70
2024/04/18 05:15:35;;;;;;;3.20;1.70;;;;;;;1.40;62.04;101370.31;5373084;26;20627;-70
2024/04/18 05:18:04;;;;;;;2.67;1.33;;;;;;;1.41;61.88;101371.19;5491495;26;20453;-70
2024/04/18 05:20:30;;;;;;;3.50;1.50;;;;;;;1.42;62.05;101367.75;5491223;26;20313;-70
2024/04/18 05:22:58;;;;;;;3.17;1.50;;;;;;;1.43;61.99;101369.50;5491593;26;20449;-81
2024/04/18 05:25:24;;;;;;;4.13;1.87;;;;;;;1.44;62.00;101363.50;5490563;26;20244;-76
2024/04/18 05:28:04;;;;;;;3.93;2.17;;;;;;;1.42;62.26;101368.66;5491362;26;20445;-77
2024/04/18 05:33:18;;;;;;;3.13;1.70;;;;;;;1.45;62.15;101373.88;5493880;26;20908;-78
2024/04/18 05:35:46;;;;;;;2.83;1.50;;;;;;;1.47;62.08;101373.91;5486262;26;20536;-77
2024/04/18 05:38:15;;;;;;;2.93;1.40;;;;;;;1.50;61.91;101378.25;5491170;26;20525;-76
2024/04/18 05:40:43;;;;;;;2.33;1.70;;;;;;;1.50;62.36;101378.25;5491301;26;20460;-77
2024/04/18 05:43:15;;;;;;;3.20;2.00;;;;;;;1.51;62.18;101378.31;5490976;26;20595;-76
2024/04/18 05:45:45;;;;;;;5.63;2.10;;;;;;;1.51;62.41;101374.88;5490584;26;20547;-76
2024/04/18 05:48:14;;;;;;;3.47;1.43;;;;;;;1.52;62.11;101376.59;5486174;26;20993;-76
2024/04/18 05:50:43;;;;;;;3.47;1.70;;;;;;;1.54;62.55;101375.81;5490900;26;20456;-76
2024/04/18 05:53:11;;;;;;;5.93;1.87;;;;;;;1.54;62.43;101362.03;5489972;26;20596;-70
2024/04/18 05:55:40;;;;;;;3.90;2.40;;;;;;;1.57;62.41;101369.84;5490718;26;20590;-70
2024/04/18 05:58:08;;;;;;;5.10;2.07;;;;;;;1.58;62.61;101371.59;5485640;26;20448;-70
2024/04/18 06:00:40;;;;;;;4.77;1.90;;;;;;;1.60;62.83;101380.25;5490587;26;20508;-70
2024/04/18 06:03:08;;;;;;;3.77;2.00;;;;;;;1.61;62.72;101374.22;5490637;26;20531;-70
2024/04/18 06:05:37;;;;;;;9.23;2.17;;;;;;;1.62;62.82;101386.31;5490877;26;20521;-70
2024/04/18 06:08:07;;;;;;;2.67;1.60;;;;;;;1.62;62.88;101378.56;5490621;26;20503;-71
2024/04/18 06:10:37;;;;;;;7.53;1.63;;;;;;;1.62;62.79;101381.16;5490568;26;20456;-70
2024/04/18 06:13:07;;;;;;;4.10;1.90;;;;;;;1.65;62.57;101392.41;5490499;26;20448;-70
2024/04/18 06:15:36;;;;;;;4.70;2.00;;;;;;;1.66;63.00;101388.97;5490437;26;20493;-70
2024/04/18 06:18:08;;;;;;;5.77;2.17;;;;;;;1.70;62.74;101387.34;5488653;26;20509;-70
2024/04/18 06:20:42;;;;;;;5.17;1.77;;;;;;;1.72;62.89;101398.56;5490311;26;20566;-70
2024/04/18 06:23:10;;;;;;;2.30;1.73;;;;;;;1.74;63.15;101401.22;5490514;26;20444;-70
2024/04/18 06:25:39;;;;;;;5.57;2.00;;;;;;;1.69;63.00;101388.19;5490209;26;21082;-70
2024/04/18 06:28:11;;;;;;;6.30;2.10;;;;;;;1.74;63.03;101396.03;5490518;26;20457;-70
2024/04/18 06:30:40;;;;;;;5.20;2.00;;;;;;;1.70;62.87;101390.81;5490247;26;20511;-70
2024/04/18 06:33:11;;;;;;;3.23;1.63;;;;;;;1.77;62.96;101402.13;5490057;26;20532;-68
2024/04/18 06:35:40;;;;;;;5.57;2.10;;;;;;;1.80;63.00;101407.38;5489932;26;20520;-68
2024/04/18 06:38:09;;;;;;;5.13;2.30;;;;;;;1.82;62.86;101400.53;5487715;26;20456;-68
2024/04/18 06:40:37;;;;;;;3.00;2.23;;;;;;;1.87;62.96;101408.38;5485545;26;20630;-69
2024/04/18 06:43:06;;;;;;;3.87;2.20;;;;;;;1.88;62.66;101402.41;5489786;26;20937;-69
2024/04/18 06:45:38;;;;;;;3.70;2.10;;;;;;;1.89;62.91;101405.00;5489725;26;20523;-69
2024/04/18 06:48:08;;;;;;;2.93;1.90;;;;;;;1.92;62.74;101402.47;5490004;26;20459;-69
2024/04/18 06:50:39;;;;;;;9.23;2.63;;;;;;;1.93;62.92;101406.81;5490180;26;20461;-69
2024/04/18 06:53:08;;;;;;;6.10;2.53;;;;;;;1.96;63.17;101408.59;5486978;26;20449;-69
2024/04/18 06:55:38;;;;;;;4.30;1.50;;;;;;;1.98;62.99;101403.47;5489815;26;20521;-69
2024/04/18 06:58:07;;;;;;;5.93;2.20;;;;;;;1.99;62.91;101406.09;5489802;26;20462;-69
2024/04/18 07:00:37;;;;;;;4.67;2.00;;;;;;;2.03;63.05;101410.47;5489589;26;20565;-68
2024/04/18 07:03:07;;;;;;;3.20;1.87;;;;;;;2.05;63.09;101410.53;5489808;26;21041;-74
2024/04/18 07:05:35;;;;;;;4.13;2.00;;;;;;;2.05;63.03;101407.94;5488223;26;20572;-74
2024/04/18 07:08:07;;;;;;;5.80;2.07;;;;;;;2.09;63.41;101407.16;5489831;26;20449;-74
2024/04/18 07:10:36;;;;;;;3.87;1.90;;;;;;;2.08;63.34;101414.03;5489803;26;20517;-74
2024/04/18 07:13:05;;;;;;;5.73;2.23;;;;;;;2.14;63.11;101413.31;5489930;26;20572;-74
2024/04/18 07:15:33;;;;;;;4.13;2.00;;;;;;;2.17;63.30;101420.25;5489518;26;20512;-74
2024/04/18 07:18:02;;;;;;;4.60;2.13;;;;;;;2.19;63.23;101421.13;5486812;26;21047;-74
2024/04/18 07:20:31;;;;;;;3.13;2.17;;;;;;;2.22;63.29;101422.09;5489480;26;20513;-74
2024/04/18 07:22:59;;;;;;;6.63;1.83;;;;;;;2.23;63.25;101416.06;5489599;26;20535;-74
2024/04/18 07:25:30;;;;;;;2.47;1.50;;;;;;;2.26;62.99;101426.47;5489125;26;20481;-74
2024/04/18 07:27:59;;;;;;;4.80;2.10;;;;;;;2.27;63.19;101430.81;5489293;26;20465;-74
2024/04/18 07:30:27;;;;;;;6.33;2.23;;;;;;;2.27;63.42;101419.59;5489625;26;20467;-74
2024/04/18 07:32:56;;;;;;;4.87;1.90;;;;;;;2.34;63.46;101426.66;5489393;26;20516;-74
2024/04/18 07:35:25;;;;;;;3.40;2.10;;;;;;;2.35;63.07;101412.88;5489562;26;20528;-75
2024/04/18 07:37:55;;;;;;;2.73;1.77;;;;;;;2.40;63.38;101419.03;5489722;26;20508;-74
2024/04/18 07:40:23;;;;;;;4.70;1.47;;;;;;;2.43;62.92;101413.06;5486101;26;20457;-74
2024/04/18 07:42:53;;;;;;;5.10;1.90;;;;;;;2.45;63.11;101420.00;5489456;26;20515;-71
2024/04/18 07:45:22;;;;;;;4.00;2.30;;;;;;;2.47;63.44;101422.59;5488619;26;20449;-71
2024/04/18 07:47:51;;;;;;;2.97;2.17;;;;;;;2.49;63.72;101416.63;5489057;26;20449;-71
2024/04/18 07:50:19;;;;;;;3.97;2.40;;;;;;;2.52;63.13;101426.16;5489090;26;20536;-71
2024/04/18 07:52:48;;;;;;;4.73;2.20;;;;;;;2.55;63.02;101423.63;5484134;26;21032;-71
2024/04/18 07:55:16;;;;;;;3.97;1.90;;;;;;;2.57;62.94;101424.53;5488880;26;20660;-72
2024/04/18 07:57:45;;;;;;;3.83;1.63;;;;;;;2.59;62.97;101428.03;5487249;26;20449;-71
2024/04/18 08:00:17;;;;;;;5.23;1.87;;;;;;;2.62;63.10;101427.22;5489069;26;20461;-71
2024/04/18 08:02:46;;;;;;;2.90;1.60;;;;;;;2.62;63.29;101427.22;5485230;26;20462;-71
2024/04/18 08:05:14;;;;;;;4.80;2.00;;;;;;;2.62;63.06;101420.34;5489318;26;20540;-71
2024/04/18 08:07:43;;;;;;;5.30;1.87;;;;;;;2.68;63.23;101428.22;5488181;26;20458;-71
2024/04/18 08:10:12;;;;;;;3.67;1.83;;;;;;;2.68;63.62;101435.97;5489019;26;20525;-72
2024/04/18 08:12:40;;;;;;;2.00;1.60;;;;;;;2.68;63.41;101427.34;5489112;26;20592;-69
2024/04/18 08:15:09;;;;;;;5.73;2.03;;;;;;;2.67;63.17;101429.06;5482735;26;20531;-69
2024/04/18 08:17:40;;;;;;;2.83;1.67;;;;;;;2.70;63.37;101429.13;5492270;26;20973;-69
2024/04/18 08:20:10;;;;;;;2.43;1.77;;;;;;;2.71;63.32;101427.41;5490592;26;20524;-69
2024/04/18 08:22:39;;;;;;;4.23;2.00;;;;;;;2.74;63.40;101424.88;5489410;26;20512;-69
2024/04/18 08:25:08;;;;;;;3.17;2.00;;;;;;;2.76;63.25;101421.50;5488051;26;20459;-69
2024/04/18 08:27:37;;;;;;;2.50;1.70;;;;;;;2.77;63.38;101418.06;5492885;26;20520;-69
2024/04/18 08:30:07;;;;;;;3.90;1.80;;;;;;;2.79;63.31;101416.38;5491845;26;20521;-69
2024/04/18 08:32:35;;;;;;;3.37;1.70;;;;;;;2.82;63.43;101419.03;5492248;26;20454;-69
2024/04/18 08:35:07;;;;;;;2.33;1.60;;;;;;;2.86;63.48;101424.25;5492040;26;20600;-69
2024/04/18 08:37:35;;;;;;;3.33;1.90;;;;;;;2.86;63.58;101413.91;5487540;26;20520;-69
2024/04/18 08:40:04;;;;;;;2.53;1.70;;;;;;;2.90;63.67;101424.34;5492187;26;20567;-69
2024/04/18 08:42:32;;;;;;;4.43;1.90;;;;;;;2.93;63.76;101421.81;5491664;26;20537;-69
2024/04/18 08:45:01;;;;;;;2.90;1.73;;;;;;;2.96;63.42;101424.47;5489352;26;20517;-69
2024/04/18 08:47:32;;;;;;;1.87;1.23;;;;;;;2.97;63.69;101420.16;5487749;26;20464;-70
2024/04/18 08:50:04;;;;;;;4.23;1.80;;;;;;;3.03;63.22;101422.84;5492190;26;20450;-69
2024/04/18 08:52:38;;;;;;;3.97;1.70;;;;;;;3.06;63.68;101417.75;5486466;26;20887;-71
2024/04/18 08:55:08;;;;;;;5.37;1.93;;;;;;;3.10;63.26;101422.13;5491842;26;20588;-71
2024/04/18 08:57:44;;;;;;;3.63;1.80;;;;;;;3.14;63.76;101418.75;5486431;26;20513;-72
2024/04/18 09:00:14;;;;;;;2.70;1.60;;;;;;;3.15;63.39;101420.47;5491671;26;20532;-72
2024/04/18 09:02:43;;;;;;;3.20;1.60;;;;;;;3.15;63.46;101410.16;5487737;26;20529;-72
2024/04/18 09:05:12;;;;;;;4.07;1.80;;;;;;;3.26;63.55;101425.84;5492002;26;20505;-71
2024/04/18 09:07:43;;;;;;;0.73;0.47;;;;;;;3.22;63.51;101409.41;5491659;26;21015;-71
2024/04/18 09:10:12;;;;;;;2.73;1.70;;;;;;;3.24;63.00;101412.03;5490180;26;20550;-71
2024/04/18 09:12:41;;;;;;;4.93;1.80;;;;;;;3.38;63.22;101425.19;5491397;26;20503;-71
2024/04/18 09:15:10;;;;;;;3.27;2.03;;;;;;;3.42;62.86;101429.59;5491717;26;20526;-71
2024/04/18 09:17:38;;;;;;;2.00;1.50;;;;;;;3.45;63.00;101434.81;5485511;26;20809;-71
2024/04/18 09:20:09;;;;;;;3.00;1.40;;;;;;;3.46;62.95;101427.06;5491467;26;20601;-72
2024/04/18 09:22:37;;;;;;;2.37;1.43;;;;;;;3.52;62.69;101431.47;5489578;26;20461;-72
2024/04/18 09:25:11;;;;;;;1.73;1.20;;;;;;;3.58;62.81;101435.88;5487216;26;20477;-72
2024/04/18 09:27:41;;;;;;;1.67;1.57;;;;;;;3.61;63.01;101429.06;5486655;26;20533;-72
2024/04/18 09:30:11;;;;;;;2.70;1.37;;;;;;;3.66;62.97;101435.16;5491511;26;20521;-72
2024/04/18 09:32:40;;;;;;;1.87;1.30;;;;;;;3.68;62.87;101432.63;5485903;26;20535;-72
2024/04/18 09:35:10;;;;;;;0.80;0.50;;;;;;;3.72;62.72;101435.28;5491392;26;20438;-71
2024/04/18 09:37:40;;;;;;;4.73;1.40;;;;;;;3.70;62.65;101426.63;5491001;26;20521;-72
2024/04/18 09:40:12;;;;;;;2.53;1.20;;;;;;;3.78;62.54;101434.50;5490991;26;20470;-72
2024/04/18 09:42:49;;;;;;;3.57;1.40;;;;;;;3.81;62.32;101433.66;5490710;26;20454;-72
2024/04/18 09:45:21;;;;;;;2.40;1.27;;;;;;;3.86;62.58;101429.44;5488797;26;20511;-72
2024/04/18 09:47:50;;;;;;;4.17;1.63;;;;;;;3.91;62.54;101446.78;5489423;26;20524;-72
2024/04/18 09:50:20;;;;;;;1.87;1.40;;;;;;;3.94;62.87;101433.00;5489083;26;20563;-72
2024/04/18 09:52:49;;;;;;;1.43;1.20;;;;;;;3.96;62.39;101428.75;5490847;26;20443;-72
2024/04/18 09:55:23;;;;;;;1.40;1.23;;;;;;;4.02;62.71;101426.25;5490802;26;20504;-72
2024/04/18 09:57:53;;;;;;;2.10;1.30;;;;;;;4.06;62.14;101433.19;5490818;26;20490;-71
2024/04/18 10:00:25;;;;;;;2.93;1.40;;;;;;;4.06;62.61;101425.41;5490752;26;20464;-72
2024/04/18 10:02:55;;;;;;;2.37;1.40;;;;;;;4.07;62.52;101424.59;5485479;26;20511;-77
2024/04/18 10:05:26;;;;;;;2.70;1.77;;;;;;;4.15;62.54;101435.03;5490552;26;20459;-77
2024/04/18 10:07:55;;;;;;;1.73;1.40;;;;;;;4.15;62.52;101425.56;5490752;26;20561;-77
2024/04/18 10:10:28;;;;;;;3.33;1.73;;;;;;;4.18;62.34;101430.78;5490600;26;20579;-77
2024/04/18 10:12:56;;;;;;;2.40;1.90;;;;;;;4.22;62.45;101433.44;5490599;26;20460;-77
2024/04/18 10:15:25;;;;;;;2.40;1.50;;;;;;;4.23;62.57;101427.38;5490640;26;20514;-77
2024/04/18 10:17:53;;;;;;;1.90;1.60;;;;;;;4.26;62.46;101427.44;5485359;26;20436;-77
2024/04/18 10:20:29;;;;;;;2.60;1.33;;;;;;;4.19;62.07;101414.41;5491015;26;20512;-78
2024/04/18 10:23:01;;;;;;;2.13;1.30;;;;;;;4.25;62.10;101420.50;5485077;26;20447;-77
2024/04/18 10:25:41;;;;;;;2.13;1.50;;;;;;;4.30;62.16;101429.22;5490343;26;20527;-77
2024/04/18 10:28:19;;;;;;;2.27;1.33;;;;;;;4.32;61.92;101423.22;5487847;26;20491;-77
2024/04/18 10:30:48;;;;;;;2.13;1.30;;;;;;;4.33;62.34;101419.78;5489631;26;20497;-70
2024/04/18 10:33:16;;;;;;;2.40;1.40;;;;;;;4.37;62.12;101425.84;5490404;26;20227;-72
2024/04/18 10:35:45;;;;;;;1.53;1.30;;;;;;;4.35;62.03;101432.72;5490410;26;20515;-72
2024/04/18 10:38:13;;;;;;;1.97;1.33;;;;;;;4.37;61.99;101433.63;5489993;26;20452;-71
2024/04/18 10:41:06;;;;;;;2.57;1.43;;;;;;;4.35;61.84;101436.22;5484359;26;20526;-71
2024/04/18 10:43:35;;;;;;;4.87;1.60;;;;;;;4.35;62.66;101423.25;5490162;26;20519;-72
2024/04/18 10:46:07;;;;;;;2.10;1.43;;;;;;;4.35;62.52;101420.66;5489894;26;20542;-72
2024/04/18 10:48:36;;;;;;;1.77;1.40;;;;;;;4.41;63.10;101425.06;5483391;26;20460;-71
2024/04/18 10:51:06;;;;;;;1.93;1.40;;;;;;;4.45;63.05;101418.19;5490440;26;20527;-72
2024/04/18 10:53:33;;;;;;;1.77;1.13;;;;;;;4.42;62.88;101408.66;5490122;26;20456;-72
2024/04/18 10:56:02;;;;;;;2.10;1.67;;;;;;;4.49;63.43;101414.78;5487869;26;20796;-72
2024/04/18 10:58:34;;;;;;;3.47;2.03;;;;;;;4.50;63.25;101411.34;5485333;26;20510;-72
2024/04/18 11:01:03;;;;;;;1.70;1.13;;;;;;;4.55;62.75;101420.94;5490030;26;20511;-72
2024/04/18 11:03:32;;;;;;;1.57;1.37;;;;;;;4.55;62.83;101418.34;5489863;26;20319;-72
2024/04/18 11:06:03;;;;;;;1.30;1.20;;;;;;;4.58;63.01;101420.97;5489888;26;20339;-72
2024/04/18 11:08:31;;;;;;;2.40;1.40;;;;;;;4.61;62.85;101420.13;5488135;26;20807;-72
2024/04/18 11:11:00;;;;;;;1.70;1.20;;;;;;;4.61;62.71;101421.00;5486563;26;20335;-77
2024/04/18 11:13:29;;;;;;;2.23;1.23;;;;;;;4.61;62.92;101415.81;5490068;26;20238;-77
2024/04/18 11:16:00;;;;;;;1.90;1.27;;;;;;;4.63;62.33;101413.22;5489736;26;20294;-77
2024/04/18 11:18:29;;;;;;;1.77;1.20;;;;;;;4.57;62.57;101406.25;5488623;26;20567;-77
2024/04/18 11:20:57;;;;;;;1.57;1.40;;;;;;;4.64;62.64;101421.03;5489909;26;20222;-77
2024/04/18 11:23:27;;;;;;;1.70;1.50;;;;;;;4.64;62.47;101421.03;5489213;26;20471;-78
2024/04/18 11:25:57;;;;;;;1.50;1.30;;;;;;;4.65;62.78;101421.91;5484064;26;20231;-77
2024/04/18 11:28:24;;;;;;;1.37;1.20;;;;;;;4.68;63.00;101421.94;5489687;26;21087;-76
2024/04/18 11:30:52;;;;;;;2.03;1.23;;;;;;;4.71;62.72;101423.69;5487435;26;20459;-76
2024/04/18 11:33:24;;;;;;;2.27;1.47;;;;;;;4.60;62.57;101405.41;5485484;26;20259;-77
2024/04/18 11:35:53;;;;;;;1.47;1.37;;;;;;;4.72;62.53;101421.13;5489393;26;20527;-77
2024/04/18 11:38:22;;;;;;;3.13;1.50;;;;;;;4.79;62.58;101424.66;5488811;26;20267;-76
2024/04/18 11:40:51;;;;;;;1.83;1.63;;;;;;;4.79;62.35;101424.66;5488542;26;20531;-72
2024/04/18 11:43:19;;;;;;;2.67;1.70;;;;;;;4.79;61.38;101427.25;5488977;26;20340;-70
2024/04/18 11:45:48;;;;;;;2.20;1.60;;;;;;;4.79;61.51;101422.06;5489253;26;20228;-70